Time;durP1;ratioP1;P1;durP2;ratioP2;P2;SDS_P1;SDS_P2;PMS_P1;PMS_P2;Temp;Humidity;BMP_temperature;BMP_pressure;BME280_temperature;BME280_humidity;BME280_pressure;Samples;Min_cycle;Max_cycle;Signal;HPM_P1;HPM_P2
2023/03/28 04:33:48;;;;;;;8.48;1.33;;;;;;;-2.86;100.00;101321.47;6233761;22;20029;-70
2023/03/28 04:36:17;;;;;;;7.07;1.98;;;;;;;-2.85;100.00;101336.28;6239336;23;20024;-69
2023/03/28 04:38:46;;;;;;;6.05;1.27;;;;;;;-2.98;100.00;101350.78;6240942;23;20404;-71
2023/03/28 04:41:15;;;;;;;7.50;1.58;;;;;;;-2.93;100.00;101354.09;6240487;23;20028;-69
2023/03/28 04:43:42;;;;;;;9.57;1.50;;;;;;;-2.89;100.00;101354.81;6240260;23;20024;-69
2023/03/28 04:46:09;;;;;;;8.40;1.67;;;;;;;-2.95;100.00;101355.94;6239644;23;20024;-69
2023/03/28 04:48:36;;;;;;;15.02;1.50;;;;;;;-2.94;100.00;101364.66;6240640;23;20275;-69
2023/03/28 04:51:03;;;;;;;10.35;1.63;;;;;;;-2.82;100.00;101359.81;6239662;23;20103;-70
2023/03/28 04:53:29;;;;;;;5.43;1.70;;;;;;;-2.90;100.00;101369.72;6234076;23;20020;-72
2023/03/28 04:55:56;;;;;;;9.00;1.15;;;;;;;-2.85;100.00;101372.19;6241513;23;20016;-69
2023/03/28 04:58:23;;;;;;;10.35;1.38;;;;;;;-2.96;100.00;101380.47;6240337;23;20019;-69
2023/03/28 05:00:50;;;;;;;13.52;1.92;;;;;;;-2.95;100.00;101384.81;6239578;23;20048;-70
2023/03/28 05:03:19;;;;;;;9.48;1.30;;;;;;;-2.93;100.00;101390.84;6237583;23;20091;-69
2023/03/28 05:05:47;;;;;;;7.07;1.88;;;;;;;-2.90;100.00;101398.59;6237927;23;20038;-69
2023/03/28 05:08:15;;;;;;;7.28;1.10;;;;;;;-2.97;100.00;101397.13;6241264;23;20024;-70
2023/03/28 05:10:44;;;;;;;11.70;1.60;;;;;;;-2.92;100.00;101402.22;6232800;23;20024;-69
2023/03/28 05:13:11;;;;;;;6.72;1.52;;;;;;;-2.92;100.00;101397.81;6240566;23;20032;-70
2023/03/28 05:15:38;;;;;;;12.60;1.90;;;;;;;-3.03;100.00;101405.25;6239891;23;20475;-70
2023/03/28 05:18:04;;;;;;;11.63;2.00;;;;;;;-3.00;100.00;101410.34;6239730;23;20439;-70
2023/03/28 05:20:32;;;;;;;13.43;2.83;;;;;;;-2.91;100.00;101412.66;6240434;23;20025;-70
2023/03/28 05:22:58;;;;;;;17.42;3.50;;;;;;;-2.86;100.00;101422.97;6240636;23;20491;-69
2023/03/28 05:25:25;;;;;;;8.93;1.60;;;;;;;-2.93;100.00;101432.00;6239265;23;20016;-69
2023/03/28 05:27:51;;;;;;;13.55;2.15;;;;;;;-2.93;100.00;101445.13;6239049;22;20058;-69
2023/03/28 05:30:18;;;;;;;9.48;1.40;;;;;;;-2.85;100.00;101441.31;6239700;23;20353;-69
2023/03/28 05:32:46;;;;;;;9.55;1.50;;;;;;;-2.78;100.00;101441.94;6238837;23;20107;-69
2023/03/28 05:35:14;;;;;;;9.32;1.95;;;;;;;-2.71;100.00;101448.69;6239133;23;20039;-69
2023/03/28 05:37:42;;;;;;;7.10;1.20;;;;;;;-2.73;100.00;101436.53;6225080;23;20104;-69
2023/03/28 05:40:13;;;;;;;6.22;1.40;;;;;;;-2.67;100.00;101441.56;6240265;22;20386;-69
2023/03/28 05:42:39;;;;;;;6.40;1.70;;;;;;;-2.56;100.00;101447.25;6236376;23;20020;-70
2023/03/28 05:45:08;;;;;;;5.80;1.33;;;;;;;-2.41;100.00;101448.44;6239763;23;20028;-71
2023/03/28 05:47:37;;;;;;;7.63;1.38;;;;;;;-2.39;100.00;101463.22;6241079;23;20103;-69
2023/03/28 05:50:05;;;;;;;13.82;1.23;;;;;;;-2.44;100.00;101462.56;6243714;23;20028;-69
2023/03/28 05:52:31;;;;;;;9.60;1.50;;;;;;;-2.28;100.00;101461.97;6237196;23;20079;-69
2023/03/28 05:54:58;;;;;;;11.13;1.88;;;;;;;-2.26;100.00;101468.88;6266397;22;20012;-70
2023/03/28 05:57:25;;;;;;;6.85;1.52;;;;;;;-2.34;100.00;101473.56;6269970;22;20055;-71
2023/03/28 05:59:51;;;;;;;8.90;1.63;;;;;;;-2.45;100.00;101484.47;6269278;22;20039;-71
2023/03/28 06:02:20;;;;;;;10.13;1.90;;;;;;;-2.51;100.00;101487.34;6268950;22;20004;-71
2023/03/28 06:04:47;;;;;;;8.93;1.40;;;;;;;-2.43;100.00;101490.53;6270673;22;20004;-71
2023/03/28 06:07:15;;;;;;;6.93;2.00;;;;;;;-2.50;100.00;101482.94;6264196;22;20070;-69
2023/03/28 06:09:42;;;;;;;8.75;1.70;;;;;;;-2.53;100.00;101494.44;6241029;22;20020;-69
2023/03/28 06:12:08;;;;;;;4.45;1.77;;;;;;;-2.48;100.00;101484.59;6241432;23;20123;-69
2023/03/28 06:14:35;;;;;;;8.80;1.75;;;;;;;-2.48;100.00;101491.63;6240821;23;20473;-69
2023/03/28 06:17:01;;;;;;;12.32;1.73;;;;;;;-2.26;100.00;101500.41;6240851;23;20043;-70
2023/03/28 06:19:28;;;;;;;6.75;1.63;;;;;;;-2.19;100.00;101503.66;6229668;23;20020;-69
2023/03/28 06:21:55;;;;;;;11.57;2.05;;;;;;;-1.98;100.00;101502.81;6240769;23;20016;-69
2023/03/28 06:24:21;;;;;;;5.32;1.50;;;;;;;-1.91;100.00;101512.19;6241341;23;20348;-69
2023/03/28 06:26:48;;;;;;;16.65;2.00;;;;;;;-1.79;100.00;101507.34;6241778;23;20016;-69
2023/03/28 06:29:15;;;;;;;5.22;1.35;;;;;;;-1.35;100.00;101504.69;6230145;22;20044;-70
2023/03/28 06:31:41;;;;;;;8.07;1.65;;;;;;;-1.27;100.00;101506.06;6241150;23;20416;-69
2023/03/28 06:34:08;;;;;;;4.30;1.65;;;;;;;-1.00;100.00;101522.47;6241595;22;20028;-70
2023/03/28 06:36:35;;;;;;;4.20;1.33;;;;;;;-0.63;100.00;101526.13;6240786;23;20103;-69
2023/03/28 06:39:02;;;;;;;8.25;1.73;;;;;;;-0.62;100.00;101514.66;6240898;23;20449;-70
2023/03/28 06:41:28;;;;;;;6.72;1.25;;;;;;;-0.13;100.00;101522.09;6242396;23;20095;-69
2023/03/28 06:43:55;;;;;;;8.75;1.40;;;;;;;0.18;100.00;101524.16;6218665;23;20046;-70
2023/03/28 06:46:21;;;;;;;6.10;1.65;;;;;;;0.42;100.00;101519.47;6219353;23;20085;-71
2023/03/28 06:48:48;;;;;;;5.57;1.45;;;;;;;0.33;100.00;101531.34;6241231;23;20095;-70
2023/03/28 06:51:14;;;;;;;7.22;1.65;;;;;;;0.76;100.00;101526.56;6241635;23;20172;-70
2023/03/28 06:53:41;;;;;;;12.93;2.15;;;;;;;1.04;100.00;101538.38;6241771;23;20027;-70
2023/03/28 06:56:08;;;;;;;8.23;1.52;;;;;;;1.45;100.00;101534.44;6241694;23;20027;-71
2023/03/28 06:58:34;;;;;;;8.18;1.48;;;;;;;1.60;100.00;101537.19;6241570;23;20329;-70
2023/03/28 07:01:01;;;;;;;7.85;1.50;;;;;;;1.94;100.00;101542.38;6243046;23;20040;-70
2023/03/28 07:03:28;;;;;;;6.10;1.25;;;;;;;2.11;98.80;101543.25;6242242;23;20526;-70
2023/03/28 07:05:56;;;;;;;8.70;1.80;;;;;;;2.53;89.10;101544.41;6241033;23;20087;-71
2023/03/28 07:08:23;;;;;;;6.55;1.48;;;;;;;2.58;88.53;101553.81;6241187;23;20168;-71
2023/03/28 07:10:49;;;;;;;6.10;1.33;;;;;;;2.86;85.97;101545.13;6241344;23;20497;-70
2023/03/28 07:13:16;;;;;;;4.57;1.30;;;;;;;2.84;84.83;101551.44;6241368;23;20051;-70
2023/03/28 07:15:42;;;;;;;7.82;1.48;;;;;;;2.70;83.06;101562.00;6232677;23;20031;-70
2023/03/28 07:18:09;;;;;;;3.33;1.17;;;;;;;2.30;81.08;101561.59;6240786;23;20063;-71
2023/03/28 07:20:40;;;;;;;5.35;1.02;;;;;;;3.02;80.14;101565.41;6242215;23;20015;-70
2023/03/28 07:23:07;;;;;;;6.38;1.13;;;;;;;2.89;81.74;101575.88;6235764;23;20078;-70
2023/03/28 07:25:33;;;;;;;5.53;1.60;;;;;;;3.50;78.33;101571.38;6241401;23;20020;-70
2023/03/28 07:28:00;;;;;;;4.03;1.38;;;;;;;3.53;74.31;101580.00;6243361;22;20043;-70
2023/03/28 07:30:27;;;;;;;5.55;1.15;;;;;;;4.11;70.97;101580.84;6242266;23;20024;-70
2023/03/28 07:32:53;;;;;;;3.80;1.30;;;;;;;4.50;69.33;101576.59;6242785;23;20052;-70
2023/03/28 07:35:40;;;;;;;6.90;1.30;;;;;;;4.44;66.38;101579.63;6242700;22;20047;-71
2023/03/28 07:38:06;;;;;;;11.93;1.80;;;;;;;3.47;65.52;101569.75;6242886;23;20020;-70
2023/03/28 07:40:33;;;;;;;9.85;1.73;;;;;;;3.66;65.26;101572.13;6241183;23;20048;-71
2023/03/28 07:43:00;;;;;;;3.53;1.02;;;;;;;4.04;64.92;101580.38;6242949;23;20031;-74
2023/03/28 07:45:26;;;;;;;7.68;1.10;;;;;;;4.44;64.84;101584.94;6244087;23;20095;-72
2023/03/28 07:47:53;;;;;;;5.32;1.20;;;;;;;4.55;62.30;101590.41;6243613;23;20028;-70
2023/03/28 07:50:20;;;;;;;10.13;1.30;;;;;;;4.93;60.33;101587.88;6243753;23;20047;-72
2023/03/28 07:52:56;;;;;;;6.38;1.15;;;;;;;5.37;59.59;101597.34;6244167;23;20012;-72
2023/03/28 07:55:25;;;;;;;6.57;1.10;;;;;;;5.81;56.81;101598.75;6240525;23;20461;-75
2023/03/28 07:57:52;;;;;;;15.68;1.58;;;;;;;6.31;53.67;101596.97;6239934;23;20035;-75
2023/03/28 08:00:22;;;;;;;6.43;1.38;;;;;;;6.21;53.84;101595.88;6240519;22;20115;-74
2023/03/28 08:02:50;;;;;;;7.13;1.10;;;;;;;6.08;50.37;101601.28;6225176;23;20078;-75
2023/03/28 08:05:17;;;;;;;4.78;1.35;;;;;;;6.27;50.05;101597.31;6240826;23;20028;-74
2023/03/28 08:07:47;;;;;;;13.10;1.85;;;;;;;6.18;49.19;101610.31;6240975;23;20031;-75
2023/03/28 08:10:13;;;;;;;4.47;1.75;;;;;;;6.39;47.61;101607.06;6240267;23;20052;-75
2023/03/28 08:12:40;;;;;;;5.93;2.00;;;;;;;5.99;51.32;101615.22;6240785;23;20090;-74
2023/03/28 08:15:07;;;;;;;6.95;1.23;;;;;;;5.88;49.78;101625.78;6235983;23;20031;-74
2023/03/28 08:17:33;;;;;;;6.00;1.00;;;;;;;6.51;46.49;101622.19;6241571;23;20020;-74
2023/03/28 08:20:00;;;;;;;2.83;0.80;;;;;;;5.75;46.58;101623.97;6241301;23;20028;-73
2023/03/28 08:22:26;;;;;;;4.65;0.90;;;;;;;6.68;44.95;101613.78;6241452;23;20333;-75
2023/03/28 08:24:53;;;;;;;5.10;1.05;;;;;;;7.44;44.59;101625.00;6239826;23;20922;-75
2023/03/28 08:27:19;;;;;;;4.47;0.93;;;;;;;6.70;43.49;101619.00;6239976;23;20030;-75
2023/03/28 08:29:46;;;;;;;6.07;1.13;;;;;;;6.34;43.37;101633.22;6239636;22;20456;-74
2023/03/28 08:32:13;;;;;;;3.85;1.10;;;;;;;6.66;43.68;101622.88;6240324;23;20030;-74
2023/03/28 08:34:40;;;;;;;2.47;0.98;;;;;;;6.73;43.19;101625.94;6224865;23;20019;-74
2023/03/28 08:37:07;;;;;;;4.10;1.00;;;;;;;6.15;42.81;101636.31;6238850;23;20024;-73
2023/03/28 08:39:33;;;;;;;15.63;1.08;;;;;;;6.36;41.31;101626.81;6239348;23;20119;-73
2023/03/28 08:42:22;;;;;;;4.07;0.90;;;;;;;6.54;41.38;101635.28;6240782;23;20441;-74
2023/03/28 08:45:30;;;;;;;6.82;1.17;;;;;;;6.05;40.68;101635.25;6237675;22;20020;-74
2023/03/28 08:47:59;;;;;;;5.72;0.98;;;;;;;6.34;40.32;101633.22;6117659;23;20026;-74
2023/03/28 08:50:34;;;;;;;8.40;1.65;;;;;;;6.68;40.49;101629.78;6118488;23;20481;-74
2023/03/28 08:53:02;;;;;;;7.75;0.90;;;;;;;7.01;40.26;101636.25;6118526;23;20022;-74
2023/03/28 08:55:36;;;;;;;4.95;0.80;;;;;;;7.19;40.50;101642.91;6118832;23;20058;-74
2023/03/28 08:58:03;;;;;;;45.53;2.65;;;;;;;7.02;40.58;101639.78;6118071;23;20137;-74
2023/03/28 09:00:38;;;;;;;8.93;1.27;;;;;;;7.12;40.41;101647.00;6118197;23;20022;-74
2023/03/28 09:03:11;;;;;;;6.28;0.85;;;;;;;7.19;39.85;101650.91;6119420;23;20453;-74
2023/03/28 09:05:44;;;;;;;5.05;0.77;;;;;;;6.23;39.96;101648.13;6118955;23;20026;-74
2023/03/28 09:08:25;;;;;;;3.10;1.00;;;;;;;5.77;41.42;101662.00;6118350;23;20030;-74
2023/03/28 09:11:38;;;;;;;2.40;0.57;;;;;;;6.46;41.09;101659.00;6118965;23;20494;-72
2023/03/28 09:14:37;;;;;;;1.50;0.75;;;;;;;5.77;37.76;101656.69;6114718;23;20313;-72
2023/03/28 09:17:44;;;;;;;2.05;0.70;;;;;;;6.20;38.48;101671.47;6124190;23;20033;-72
2023/03/28 09:20:33;;;;;;;4.88;0.90;;;;;;;6.10;38.48;101668.59;6244238;22;20382;-72
2023/03/28 09:23:25;;;;;;;5.70;1.10;;;;;;;4.92;40.88;101673.09;6243063;22;20028;-72
2023/03/28 09:26:00;;;;;;;8.55;0.77;;;;;;;4.48;41.76;101682.97;6181889;22;20099;-72
2023/03/28 09:28:50;;;;;;;1.95;0.70;;;;;;;4.99;41.03;101677.91;6243317;22;20016;-72
2023/03/28 09:31:21;;;;;;;3.88;0.70;;;;;;;5.52;41.03;101685.91;6243630;23;20034;-72
2023/03/28 09:33:54;;;;;;;5.15;0.90;;;;;;;4.62;41.29;101682.09;6244010;23;20024;-72
2023/03/28 09:36:24;;;;;;;3.80;0.82;;;;;;;3.92;43.10;101682.00;6243318;22;20354;-72
2023/03/28 09:39:06;;;;;;;;;;;;;;;3.85;42.54;101678.88;6243928;22;20032;-72
2023/03/28 09:41:41;;;;;;;4.55;0.70;;;;;;;3.87;42.74;101676.13;6243223;23;19920;-72
2023/03/28 09:44:13;;;;;;;2.33;0.80;;;;;;;3.82;44.28;101692.31;6242774;23;20458;-72
2023/03/28 09:46:47;;;;;;;3.58;0.80;;;;;;;4.39;43.02;101699.50;6243909;23;20020;-72
2023/03/28 09:49:21;;;;;;;1.58;0.70;;;;;;;4.89;42.05;101683.94;6245024;23;20026;-72
2023/03/28 09:51:51;;;;;;;3.47;0.85;;;;;;;5.06;41.58;101686.34;6234388;23;20091;-72
2023/03/28 09:54:28;;;;;;;5.22;0.68;;;;;;;5.04;40.74;101706.88;6244076;23;20043;-72
2023/03/28 09:57:02;;;;;;;1.75;0.65;;;;;;;4.65;42.68;101705.81;6237123;22;20023;-72
2023/03/28 09:59:31;;;;;;;3.00;0.80;;;;;;;5.01;41.72;101704.41;6243035;23;20021;-72
2023/03/28 10:02:01;;;;;;;1.63;0.60;;;;;;;4.50;40.68;101696.16;6219536;23;20020;-72
2023/03/28 10:04:27;;;;;;;1.67;0.60;;;;;;;4.18;40.53;101709.63;6225521;23;20020;-72
2023/03/28 10:07:09;;;;;;;3.28;0.70;;;;;;;3.90;40.00;101693.66;6242458;23;20074;-72
2023/03/28 10:09:56;;;;;;;;;;;;;;;5.17;38.02;101698.94;6242536;23;20028;-72
2023/03/28 10:12:36;;;;;;;2.03;0.57;;;;;;;4.93;39.23;101712.03;6242405;23;19946;-72
2023/03/28 10:15:04;;;;;;;1.58;0.70;;;;;;;4.60;38.86;101704.41;6243086;23;20048;-72
2023/03/28 10:17:33;;;;;;;1.50;0.55;;;;;;;4.45;39.24;101700.91;6238654;23;20020;-73
2023/03/28 10:20:06;;;;;;;;;;;;;;;4.44;38.53;101701.88;6241960;22;20024;-73
2023/03/28 10:22:36;;;;;;;10.10;1.40;;;;;;;4.04;41.08;101702.50;6242489;23;19926;-72
2023/03/28 10:25:14;;;;;;;11.10;1.23;;;;;;;3.73;42.29;101708.81;6241149;23;20353;-72
2023/03/28 10:27:41;;;;;;;28.42;2.63;;;;;;;3.89;42.60;101705.22;6241703;22;20020;-72
2023/03/28 10:30:13;;;;;;;11.25;1.20;;;;;;;4.06;41.33;101708.56;6241672;23;20026;-72
2023/03/28 10:32:40;;;;;;;2.85;0.90;;;;;;;4.51;41.10;101708.50;6238850;23;20030;-72
2023/03/28 10:35:29;;;;;;;2.38;0.70;;;;;;;5.40;39.08;101706.25;6241825;23;20024;-72
2023/03/28 10:38:02;;;;;;;1.00;0.70;;;;;;;6.58;36.86;101707.91;6241318;23;20017;-72
2023/03/28 10:40:30;;;;;;;3.00;1.05;;;;;;;7.06;36.31;101695.47;6240244;23;20016;-72
2023/03/28 10:42:58;;;;;;;3.25;0.90;;;;;;;7.43;35.14;101695.41;6241275;23;20055;-72
2023/03/28 10:45:42;;;;;;;4.78;1.00;;;;;;;7.94;34.10;101695.06;6240320;23;20096;-73
2023/03/28 10:48:36;;;;;;;7.43;0.77;;;;;;;7.82;33.45;101699.50;6241073;23;20031;-72
2023/03/28 10:51:07;;;;;;;2.47;0.70;;;;;;;7.35;33.54;101700.44;6236778;23;20020;-72
2023/03/28 10:53:43;;;;;;;2.17;0.80;;;;;;;7.15;33.93;101710.81;6240503;23;20054;-71
2023/03/28 10:56:37;;;;;;;1.52;0.60;;;;;;;7.58;33.86;101707.56;6242117;23;20095;-72
2023/03/28 10:59:06;;;;;;;4.97;0.60;;;;;;;7.53;33.89;101706.22;6242724;23;20034;-72
2023/03/28 11:01:45;;;;;;;2.10;0.90;;;;;;;8.04;33.46;101701.38;6241403;23;20508;-72
2023/03/28 11:04:15;;;;;;;3.00;0.80;;;;;;;6.98;34.05;101703.19;6241698;23;20066;-72
2023/03/28 11:06:44;;;;;;;1.10;0.40;;;;;;;6.13;34.74;101704.84;6241087;23;20028;-72
2023/03/28 11:09:30;;;;;;;3.30;0.70;;;;;;;5.59;37.00;101720.97;6241768;23;20020;-72
2023/03/28 11:12:16;;;;;;;1.58;0.60;;;;;;;5.83;36.74;101721.97;6241753;23;20074;-72
2023/03/28 11:15:21;;;;;;;2.72;0.47;;;;;;;6.48;35.07;101719.22;6241135;23;20057;-72
2023/03/28 11:17:50;;;;;;;7.55;0.98;;;;;;;6.86;35.13;101714.75;6240596;23;20022;-72
2023/03/28 11:20:28;;;;;;;5.85;1.05;;;;;;;7.45;34.73;101717.47;6242032;23;20070;-72
2023/03/28 11:23:09;;;;;;;1.90;0.60;;;;;;;6.83;34.47;101717.66;6241612;23;20048;-72
2023/03/28 11:25:42;;;;;;;3.78;1.55;;;;;;;6.16;34.88;101721.47;6242207;23;20111;-71
2023/03/28 11:28:34;;;;;;;1.88;0.70;;;;;;;6.92;34.53;101725.84;6242289;22;20442;-72
2023/03/28 11:31:02;;;;;;;2.42;0.68;;;;;;;7.16;33.06;101727.66;6242938;23;20020;-72
2023/03/28 11:33:46;;;;;;;2.90;0.80;;;;;;;7.79;32.36;101725.59;6242842;23;20020;-71
2023/03/28 11:36:20;;;;;;;3.90;0.50;;;;;;;8.70;32.12;101716.69;6242687;23;20023;-72
2023/03/28 11:38:56;;;;;;;1.05;0.50;;;;;;;8.78;32.29;101719.59;6241927;22;20020;-72
2023/03/28 11:41:29;;;;;;;1.15;0.40;;;;;;;8.47;31.17;101726.56;6241554;23;20016;-72
2023/03/28 11:44:05;;;;;;;1.00;0.70;;;;;;;7.68;33.02;101722.91;6240622;23;20020;-72
2023/03/28 11:46:34;;;;;;;5.68;0.93;;;;;;;7.59;32.34;101727.97;6241000;23;20020;-72
2023/03/28 11:49:28;;;;;;;2.47;0.35;;;;;;;9.29;30.61;101727.88;6242044;22;20032;-72
2023/03/28 11:52:44;;;;;;;1.27;0.50;;;;;;;11.20;29.09;101710.34;6241266;23;20095;-72
2023/03/28 11:55:22;;;;;;;9.07;0.70;;;;;;;12.85;27.38;101703.78;6119597;23;20026;-70
2023/03/28 11:58:04;;;;;;;6.07;2.30;;;;;;;13.14;25.97;101695.47;6119549;23;20044;-70
2023/03/28 12:00:40;;;;;;;3.47;1.25;;;;;;;11.54;27.35;101704.56;6118994;23;20045;-72
2023/03/28 12:03:12;;;;;;;2.20;0.45;;;;;;;11.09;27.80;101702.44;6118610;23;20367;-72
2023/03/28 12:05:46;;;;;;;4.32;0.60;;;;;;;8.83;30.39;101701.34;6119049;23;20026;-72
2023/03/28 12:08:23;;;;;;;1.30;0.60;;;;;;;7.39;31.51;101705.44;6119540;23;20044;-72
2023/03/28 12:10:56;;;;;;;3.80;0.70;;;;;;;7.03;32.06;101706.38;6118020;23;20045;-72
2023/03/28 12:13:38;;;;;;;3.53;0.98;;;;;;;7.47;32.12;101712.88;6118461;23;20050;-71
2023/03/28 12:16:16;;;;;;;2.38;0.60;;;;;;;9.78;30.06;101699.66;6119255;23;20046;-72
2023/03/28 12:18:51;;;;;;;2.92;0.50;;;;;;;10.43;28.22;101700.28;6120317;23;20022;-72
2023/03/28 12:21:41;;;;;;;0.95;0.50;;;;;;;10.24;28.72;101701.06;6119631;23;20018;-72
2023/03/28 12:24:22;;;;;;;3.33;0.55;;;;;;;8.97;30.00;101694.88;6117988;23;20030;-71
2023/03/28 12:27:04;;;;;;;1.65;0.55;;;;;;;8.33;31.43;101709.81;6117571;23;20131;-71
2023/03/28 12:29:59;;;;;;;3.33;0.65;;;;;;;8.10;31.43;101708.09;6206165;23;20099;-72
2023/03/28 12:32:31;;;;;;;1.23;0.60;;;;;;;7.79;31.95;101704.22;6239853;22;20357;-72
2023/03/28 12:35:04;;;;;;;1.08;0.43;;;;;;;8.41;31.05;101701.16;6240245;23;20044;-72
2023/03/28 12:37:42;;;;;;;4.18;0.73;;;;;;;8.92;30.52;101705.97;6240989;23;20020;-72
2023/03/28 12:40:22;;;;;;;1.00;0.30;;;;;;;8.40;30.56;101706.63;6239974;23;20424;-71
2023/03/28 12:42:52;;;;;;;1.67;0.60;;;;;;;7.52;32.20;101708.03;6238345;22;20091;-72
2023/03/28 12:45:27;;;;;;;3.70;0.73;;;;;;;8.20;30.88;101700.19;6238082;23;20055;-71
2023/03/28 12:48:01;;;;;;;2.40;0.60;;;;;;;10.82;28.03;101695.03;6225298;23;20023;-70
2023/03/28 12:50:46;;;;;;;3.40;0.80;;;;;;;11.28;27.32;101693.56;6239284;23;20048;-72
2023/03/28 12:53:14;;;;;;;2.30;0.80;;;;;;;11.81;27.15;101698.50;6237631;23;20045;-72
2023/03/28 12:55:46;;;;;;;1.30;0.60;;;;;;;10.81;27.79;101693.34;6230824;23;20028;-72
2023/03/28 12:58:32;;;;;;;2.20;0.82;;;;;;;10.78;28.22;101692.78;6201289;23;20047;-70
2023/03/28 13:01:07;;;;;;;3.95;0.70;;;;;;;11.42;27.41;101693.13;6241277;23;20077;-71
2023/03/28 13:04:12;;;;;;;24.80;1.65;;;;;;;12.02;26.75;101694.75;6240503;23;20024;-72
2023/03/28 13:06:42;;;;;;;2.47;0.65;;;;;;;9.02;29.44;101709.59;6241523;23;20052;-71
2023/03/28 13:09:17;;;;;;;2.03;0.68;;;;;;;9.38;29.41;101704.03;6236337;23;20479;-71
2023/03/28 13:12:19;;;;;;;9.45;1.02;;;;;;;8.43;30.43;101699.19;6241910;23;20020;-72
2023/03/28 13:14:59;;;;;;;3.35;0.90;;;;;;;8.04;30.82;101700.53;6242349;23;20382;-72
2023/03/28 13:17:29;;;;;;;1.15;0.40;;;;;;;6.75;31.97;101696.88;6241543;23;20096;-72
2023/03/28 13:20:14;;;;;;;17.67;1.20;;;;;;;6.53;33.24;101705.56;6242869;23;20407;-72
2023/03/28 13:23:00;;;;;;;1.95;0.60;;;;;;;5.68;34.67;101694.59;6243129;23;20020;-72
2023/03/28 13:25:31;;;;;;;1.48;0.80;;;;;;;5.18;35.69;101701.50;6243387;22;20381;-72
2023/03/28 13:28:11;;;;;;;1.55;0.73;;;;;;;4.87;34.86;101713.28;6242847;22;20026;-71
2023/03/28 13:30:43;;;;;;;8.13;0.80;;;;;;;4.93;36.06;101712.03;6242004;23;20008;-72
2023/03/28 13:33:24;;;;;;;3.10;0.73;;;;;;;4.65;35.74;101707.63;6241653;23;20024;-72
2023/03/28 13:35:57;;;;;;;3.90;0.50;;;;;;;4.75;36.18;101693.66;6241844;23;20099;-72
2023/03/28 13:38:24;;;;;;;8.48;0.80;;;;;;;4.58;37.20;101697.38;6241797;23;20047;-72
2023/03/28 13:41:05;;;;;;;2.95;0.60;;;;;;;4.57;36.81;101711.63;6242924;23;20095;-71
2023/03/28 13:43:34;;;;;;;5.15;1.05;;;;;;;4.68;36.87;101699.47;6240276;23;20048;-72
2023/03/28 13:46:07;;;;;;;4.60;0.70;;;;;;;4.73;37.39;101703.53;6241080;23;20016;-72
2023/03/28 13:48:59;;;;;;;3.42;0.68;;;;;;;4.70;36.64;101703.72;6239494;23;20024;-71
2023/03/28 13:51:37;;;;;;;1.00;0.55;;;;;;;4.53;35.89;101702.13;6240129;23;20027;-72
2023/03/28 13:54:03;;;;;;;3.20;0.70;;;;;;;4.32;36.36;101701.66;6239743;23;20095;-72
2023/03/28 13:56:33;;;;;;;3.55;0.60;;;;;;;4.29;36.65;101704.50;6240255;23;20024;-72
2023/03/28 13:59:04;;;;;;;2.58;0.68;;;;;;;4.09;37.18;101707.53;6240259;23;20013;-72
2023/03/28 14:01:36;;;;;;;;;;;;;;;3.94;36.74;101706.66;6242228;23;20016;-72
2023/03/28 14:04:15;;;;;;;2.45;0.80;;;;;;;4.11;37.16;101692.38;6211185;23;20481;-71
2023/03/28 14:06:41;;;;;;;2.08;0.73;;;;;;;4.12;36.41;101691.41;6231635;23;20040;-71
2023/03/28 14:09:29;;;;;;;1.70;0.60;;;;;;;3.97;37.20;101692.38;6239351;22;20039;-71
2023/03/28 14:12:01;;;;;;;4.70;1.02;;;;;;;4.02;36.67;101695.56;6239645;23;20024;-73
2023/03/28 14:14:53;;;;;;;4.38;2.38;;;;;;;4.05;36.41;101695.41;6225155;23;20043;-72
2023/03/28 14:17:31;;;;;;;8.80;2.00;;;;;;;4.20;36.37;101697.09;6215855;23;20341;-72
2023/03/28 14:20:00;;;;;;;2.17;0.90;;;;;;;4.24;35.21;101693.31;6234696;23;20095;-72
2023/03/28 14:22:30;;;;;;;0.60;0.50;;;;;;;4.11;35.46;101692.38;6241276;23;20026;-72
2023/03/28 14:25:00;;;;;;;3.45;0.75;;;;;;;4.05;36.71;101687.44;6230433;23;20044;-71
2023/03/28 14:27:36;;;;;;;17.35;1.00;;;;;;;4.11;36.56;101681.75;6236748;23;20039;-72
2023/03/28 14:30:15;;;;;;;2.90;0.90;;;;;;;4.02;36.20;101692.91;6238950;22;20147;-72
2023/03/28 14:32:57;;;;;;;2.50;0.70;;;;;;;4.07;37.50;101696.13;6237498;23;20043;-72
2023/03/28 14:35:32;;;;;;;4.25;0.90;;;;;;;4.24;37.61;101693.31;6241933;23;20024;-72
2023/03/28 14:38:06;;;;;;;1.00;0.50;;;;;;;4.21;37.64;101689.97;6239286;23;20357;-72
2023/03/28 14:40:38;;;;;;;3.05;0.60;;;;;;;4.05;37.54;101693.59;6238820;23;20400;-72
2023/03/28 14:43:18;;;;;;;;;;;;;;;4.23;37.39;101678.31;6239146;23;20085;-71
2023/03/28 14:45:51;;;;;;;5.18;0.60;;;;;;;4.28;37.15;101684.22;6238676;23;20043;-72
2023/03/28 14:48:22;;;;;;;3.00;0.45;;;;;;;4.23;36.33;101686.28;6238909;22;20020;-72
2023/03/28 14:50:51;;;;;;;0.80;0.47;;;;;;;4.22;36.92;101689.91;6240844;23;20360;-71
2023/03/28 14:53:26;;;;;;;2.03;0.65;;;;;;;4.14;35.83;101689.53;6240665;23;20020;-72
2023/03/28 14:55:55;;;;;;;1.98;0.80;;;;;;;3.97;37.64;101692.38;6225488;23;20020;-72
2023/03/28 14:58:26;;;;;;;3.63;0.57;;;;;;;4.12;37.32;101693.22;6236036;23;20024;-72
2023/03/28 15:00:58;;;;;;;4.50;0.70;;;;;;;4.15;36.04;101699.19;6237394;23;20091;-72
2023/03/28 15:03:37;;;;;;;3.40;0.55;;;;;;;4.05;38.04;101687.44;6240177;23;20048;-72
2023/03/28 15:06:07;;;;;;;2.20;0.70;;;;;;;4.12;37.87;101687.91;6236152;23;20027;-72
2023/03/28 15:08:38;;;;;;;1.27;0.50;;;;;;;3.93;37.40;101685.50;6239399;23;20016;-72
2023/03/28 15:11:22;;;;;;;1.02;0.57;;;;;;;4.03;38.04;101686.66;6234920;23;20523;-72
2023/03/28 15:13:57;;;;;;;1.50;0.55;;;;;;;4.05;37.88;101685.63;6238918;22;20098;-72
2023/03/28 15:16:25;;;;;;;2.08;0.80;;;;;;;4.09;37.99;101675.66;6237941;23;20398;-72
2023/03/28 15:19:21;;;;;;;2.97;0.60;;;;;;;4.10;38.70;101672.06;6240135;23;20087;-72
2023/03/28 15:21:53;;;;;;;1.55;0.70;;;;;;;4.07;38.93;101681.09;6236492;23;20114;-72
2023/03/28 15:24:21;;;;;;;3.72;1.00;;;;;;;4.12;38.75;101671.97;6239231;23;20418;-72
2023/03/28 15:26:52;;;;;;;0.77;0.52;;;;;;;3.98;37.80;101673.66;6238947;23;20329;-72
2023/03/28 15:29:21;;;;;;;2.65;0.82;;;;;;;4.04;38.34;101685.72;6237906;22;20066;-72
2023/03/28 15:31:48;;;;;;;5.32;0.70;;;;;;;4.00;38.92;101678.88;6238355;22;20031;-72
2023/03/28 15:34:26;;;;;;;1.80;0.70;;;;;;;3.97;38.92;101665.81;6238729;23;20020;-73
2023/03/28 15:37:01;;;;;;;4.57;0.70;;;;;;;3.94;37.55;101674.81;6198927;23;20079;-72
2023/03/28 15:39:30;;;;;;;2.53;0.70;;;;;;;4.00;37.67;101665.59;6233443;23;20026;-72
2023/03/28 15:42:20;;;;;;;2.05;0.88;;;;;;;3.83;37.53;101666.66;6239134;23;20404;-72
2023/03/28 15:44:56;;;;;;;1.35;0.65;;;;;;;3.77;38.23;101673.19;6227051;23;20030;-72
2023/03/28 15:47:29;;;;;;;7.30;0.88;;;;;;;3.65;39.12;101670.41;6237343;23;20043;-72
2023/03/28 15:50:03;;;;;;;1.40;0.60;;;;;;;3.63;39.05;101667.84;6238664;23;20162;-72
2023/03/28 15:52:30;;;;;;;8.27;0.77;;;;;;;3.72;39.24;101669.94;6237739;23;20035;-72
2023/03/28 15:54:59;;;;;;;9.10;0.68;;;;;;;3.67;39.58;101668.53;6239944;23;20023;-72
2023/03/28 15:57:28;;;;;;;7.68;1.25;;;;;;;3.65;39.41;101668.59;6240626;23;20408;-73
2023/03/28 15:59:57;;;;;;;3.53;0.77;;;;;;;3.70;39.41;101669.19;6239855;23;20352;-72
2023/03/28 16:02:23;;;;;;;9.18;1.10;;;;;;;3.67;40.33;101672.03;6239934;23;20031;-73
2023/03/28 16:05:05;;;;;;;2.50;0.80;;;;;;;3.63;40.68;101673.16;6221159;23;20071;-72
2023/03/28 16:07:41;;;;;;;2.85;1.02;;;;;;;3.59;39.98;101669.00;6239932;23;20082;-72
2023/03/28 16:10:07;;;;;;;1.23;0.82;;;;;;;3.59;40.25;101672.50;6239105;22;20024;-72
2023/03/28 16:12:34;;;;;;;3.33;0.75;;;;;;;3.49;40.29;101670.47;6239398;23;20070;-72
2023/03/28 16:15:02;;;;;;;2.42;0.70;;;;;;;3.66;40.20;101665.03;6240262;23;20319;-72
2023/03/28 16:17:30;;;;;;;5.10;0.90;;;;;;;3.70;40.81;101671.84;6241396;23;20016;-72
2023/03/28 16:19:57;;;;;;;5.18;0.90;;;;;;;3.57;41.00;101670.88;6240687;23;20024;-72
2023/03/28 16:22:24;;;;;;;5.25;1.35;;;;;;;3.68;40.91;101673.72;6240272;23;20020;-72
2023/03/28 16:24:53;;;;;;;3.25;0.90;;;;;;;3.59;41.29;101671.66;6240560;23;20465;-72
2023/03/28 16:27:20;;;;;;;4.45;0.85;;;;;;;3.77;40.87;101667.88;6238399;23;20107;-72
2023/03/28 16:29:47;;;;;;;4.03;1.02;;;;;;;3.83;41.54;101664.84;6240240;22;20357;-72